Airfield :
LOGIN :

Register | Disclaimer

   EN    FR    IT 

 










Legend :    VFR   Marginal VFR   IFR   Intensive IFR   Very Intensive IFR
Visi :
Ceiling :
>= 8 km
>= 3000ft
5 to 8 km
1000 to 3000 ft
1500m to 5 km
500 to 1000 ft
800 to 1500m
200 to 500 ft
< 800m
< 200 ft
Symbols :   Thunderstorms  Fog  Heavy snow  Heavy precipitations  Wind > 20 kt
SIGMETs :     Misc.  Thunderstorms  Icing  Turbulence  Mountain Waves  Volcanic Ashes







- Airport Elevation : 87 ft
- IATA code : FSC
- Download approach charts


LFKF - Figari

CURRENT METAR :
  • 251430Z AUTO 23013KT CAVOK 25/16 Q1017 BECMG 05006KT

EXPIRED METARs :
  • 251400Z AUTO 24014KT CAVOK 25/16 Q1017 NOSIG
  • 251330Z AUTO 23014KT 200V260 9999 FEW078 25/16 Q1017 NOSIG
  • 251300Z AUTO 23011KT 200V260 9999 FEW039 25/16 Q1017 NOSIG
  • 251230Z AUTO 22011KT 9999 FEW043 25/16 Q1017 NOSIG
  • 251200Z AUTO 23013KT 9999 BKN041 25/15 Q1018 NOSIG

TAF TAF LFKF
Valid from the 25 at 15:00 until the 26 at 15:00 UTC


251400Z 2515/2615 23010KT 9999 FEW040 SCT260
BECMG 2516/2518 05006KT
PROB40
TEMPO 2518/2522 SHRA
BECMG 2600/2602 RA FEW020CB BKN030 BKN080 BKN200
PROB40
TEMPO 2602/2606 TSRA SCT015CB BKN025 BKN060 BKN160
BECMG 2608/2610 NSW FEW030TCU
TEMPO 2612/2615 SHRA
No reported NOTAMs for that airfield.
1 SIGMET reported for the Marseille FIR (LFMM) :
 
Embedded thunderstorms
LFMM SIGMET 4 VALID 251300/251500 LFPW
LFMM MARSEILLE FIR/UIR EMBD TS OBS WI N4215 E00315 - N4215 E00230 - N4300 E00230 - N4300 E00300 TOP FL350 MOV E 10KT NC=



MET'MAP, your aeronautical weather chart ! - Copyright ORBIFLY December 2007 - Disclaimer

ORBIFLY MET'MAP TEAM :

Programming & Development : Alexandra Zaïnal
Concept & Development : Baudouin d'Aumeries
Co-Development & Prog : Marc-Olivier Méhu
Technical & hardware support : Manuel Goepfert

Contact : metmap@orbifly.com




SOURCES & CREDITS :

   NOAA